sensor_id;sensor_type;location;lat;lon;timestamp;P1;durP1;ratioP1;P2;durP2;ratioP2
27491;SDS011;14927;51.210;6.838;2023-05-29T00:01:14;6.80;;;2.10;;
27491;SDS011;14927;51.210;6.838;2023-05-29T00:04:02;3.17;;;1.70;;
27491;SDS011;14927;51.210;6.838;2023-05-29T00:06:47;3.15;;;1.83;;
27491;SDS011;14927;51.210;6.838;2023-05-29T00:09:32;3.05;;;1.65;;
27491;SDS011;14927;51.210;6.838;2023-05-29T00:12:17;3.55;;;1.77;;
27491;SDS011;14927;51.210;6.838;2023-05-29T00:15:02;4.80;;;2.38;;
27491;SDS011;14927;51.210;6.838;2023-05-29T00:17:48;3.40;;;1.65;;
27491;SDS011;14927;51.210;6.838;2023-05-29T00:20:32;3.30;;;1.88;;
27491;SDS011;14927;51.210;6.838;2023-05-29T00:23:18;4.30;;;1.77;;
27491;SDS011;14927;51.210;6.838;2023-05-29T00:26:05;3.85;;;1.75;;
27491;SDS011;14927;51.210;6.838;2023-05-29T00:28:50;4.72;;;1.70;;
27491;SDS011;14927;51.210;6.838;2023-05-29T00:31:35;3.25;;;1.92;;
27491;SDS011;14927;51.210;6.838;2023-05-29T00:34:21;4.38;;;1.70;;
27491;SDS011;14927;51.210;6.838;2023-05-29T00:37:07;4.90;;;2.20;;
27491;SDS011;14927;51.210;6.838;2023-05-29T00:39:55;3.80;;;2.28;;
27491;SDS011;14927;51.210;6.838;2023-05-29T00:42:42;3.53;;;2.13;;
27491;SDS011;14927;51.210;6.838;2023-05-29T00:45:27;2.90;;;2.00;;
27491;SDS011;14927;51.210;6.838;2023-05-29T00:48:14;6.10;;;1.98;;
27491;SDS011;14927;51.210;6.838;2023-05-29T00:50:59;4.78;;;2.25;;
27491;SDS011;14927;51.210;6.838;2023-05-29T00:53:44;3.78;;;2.45;;
27491;SDS011;14927;51.210;6.838;2023-05-29T00:56:31;3.40;;;1.88;;
27491;SDS011;14927;51.210;6.838;2023-05-29T00:59:16;4.43;;;2.20;;
27491;SDS011;14927;51.210;6.838;2023-05-29T01:02:02;4.35;;;2.08;;
27491;SDS011;14927;51.210;6.838;2023-05-29T01:07:38;5.75;;;2.22;;
27491;SDS011;14927;51.210;6.838;2023-05-29T01:10:22;4.07;;;2.25;;
27491;SDS011;14927;51.210;6.838;2023-05-29T01:13:08;4.20;;;2.15;;
27491;SDS011;14927;51.210;6.838;2023-05-29T01:24:58;3.78;;;1.95;;
27491;SDS011;14927;51.210;6.838;2023-05-29T01:28:01;3.88;;;2.28;;
27491;SDS011;14927;51.210;6.838;2023-05-29T01:30:50;7.88;;;2.58;;
27491;SDS011;14927;51.210;6.838;2023-05-29T01:33:39;5.10;;;1.90;;
27491;SDS011;14927;51.210;6.838;2023-05-29T01:36:24;4.53;;;2.05;;
27491;SDS011;14927;51.210;6.838;2023-05-29T01:39:10;3.53;;;1.95;;
27491;SDS011;14927;51.210;6.838;2023-05-29T01:41:55;5.78;;;2.03;;
27491;SDS011;14927;51.210;6.838;2023-05-29T01:44:40;4.00;;;2.15;;
27491;SDS011;14927;51.210;6.838;2023-05-29T01:47:26;3.83;;;2.00;;
27491;SDS011;14927;51.210;6.838;2023-05-29T01:50:11;4.60;;;2.10;;
27491;SDS011;14927;51.210;6.838;2023-05-29T01:52:59;6.00;;;2.05;;
27491;SDS011;14927;51.210;6.838;2023-05-29T01:55:44;5.10;;;2.00;;
27491;SDS011;14927;51.210;6.838;2023-05-29T01:58:29;6.65;;;2.63;;
27491;SDS011;14927;51.210;6.838;2023-05-29T02:01:15;7.80;;;2.85;;
27491;SDS011;14927;51.210;6.838;2023-05-29T02:04:00;6.40;;;2.03;;
27491;SDS011;14927;51.210;6.838;2023-05-29T02:06:45;9.13;;;2.30;;
27491;SDS011;14927;51.210;6.838;2023-05-29T02:09:29;7.88;;;2.25;;
27491;SDS011;14927;51.210;6.838;2023-05-29T02:12:14;7.55;;;2.70;;
27491;SDS011;14927;51.210;6.838;2023-05-29T02:15:02;7.13;;;2.33;;
27491;SDS011;14927;51.210;6.838;2023-05-29T02:17:48;5.50;;;1.90;;
27491;SDS011;14927;51.210;6.838;2023-05-29T02:20:40;7.35;;;2.38;;
27491;SDS011;14927;51.210;6.838;2023-05-29T02:23:27;6.80;;;2.10;;
27491;SDS011;14927;51.210;6.838;2023-05-29T02:26:12;9.55;;;2.70;;
27491;SDS011;14927;51.210;6.838;2023-05-29T02:28:59;6.60;;;2.30;;
27491;SDS011;14927;51.210;6.838;2023-05-29T02:31:49;5.80;;;2.15;;
27491;SDS011;14927;51.210;6.838;2023-05-29T02:34:34;9.27;;;2.30;;
27491;SDS011;14927;51.210;6.838;2023-05-29T02:37:19;9.82;;;2.30;;
27491;SDS011;14927;51.210;6.838;2023-05-29T02:40:09;8.15;;;2.17;;
27491;SDS011;14927;51.210;6.838;2023-05-29T02:42:55;8.40;;;2.30;;
27491;SDS011;14927;51.210;6.838;2023-05-29T02:45:40;14.40;;;2.92;;
27491;SDS011;14927;51.210;6.838;2023-05-29T02:48:27;11.45;;;2.50;;
27491;SDS011;14927;51.210;6.838;2023-05-29T02:51:13;9.27;;;2.50;;
27491;SDS011;14927;51.210;6.838;2023-05-29T02:53:58;8.63;;;2.25;;
27491;SDS011;14927;51.210;6.838;2023-05-29T02:56:45;6.80;;;2.47;;
27491;SDS011;14927;51.210;6.838;2023-05-29T02:59:30;11.25;;;2.83;;
27491;SDS011;14927;51.210;6.838;2023-05-29T03:02:16;10.25;;;2.85;;
27491;SDS011;14927;51.210;6.838;2023-05-29T03:05:04;10.95;;;2.63;;
27491;SDS011;14927;51.210;6.838;2023-05-29T03:07:50;11.57;;;2.17;;
27491;SDS011;14927;51.210;6.838;2023-05-29T03:10:35;13.02;;;2.70;;
27491;SDS011;14927;51.210;6.838;2023-05-29T03:13:27;7.20;;;2.22;;
27491;SDS011;14927;51.210;6.838;2023-05-29T03:16:12;13.25;;;2.78;;
27491;SDS011;14927;51.210;6.838;2023-05-29T03:19:00;9.40;;;2.50;;
27491;SDS011;14927;51.210;6.838;2023-05-29T03:21:44;6.82;;;1.92;;
27491;SDS011;14927;51.210;6.838;2023-05-29T03:24:29;8.70;;;2.50;;
27491;SDS011;14927;51.210;6.838;2023-05-29T03:27:14;12.77;;;2.97;;
27491;SDS011;14927;51.210;6.838;2023-05-29T03:30:02;16.33;;;2.88;;
27491;SDS011;14927;51.210;6.838;2023-05-29T03:32:48;9.65;;;2.72;;
27491;SDS011;14927;51.210;6.838;2023-05-29T03:35:33;11.98;;;2.47;;
27491;SDS011;14927;51.210;6.838;2023-05-29T03:38:21;11.95;;;2.60;;
27491;SDS011;14927;51.210;6.838;2023-05-29T03:41:06;7.97;;;2.22;;
27491;SDS011;14927;51.210;6.838;2023-05-29T03:43:51;11.10;;;2.75;;
27491;SDS011;14927;51.210;6.838;2023-05-29T03:46:36;8.68;;;2.17;;
27491;SDS011;14927;51.210;6.838;2023-05-29T03:49:20;13.57;;;2.97;;
27491;SDS011;14927;51.210;6.838;2023-05-29T03:52:05;11.68;;;2.83;;
27491;SDS011;14927;51.210;6.838;2023-05-29T03:54:52;10.65;;;3.08;;
27491;SDS011;14927;51.210;6.838;2023-05-29T03:57:40;12.57;;;2.65;;
27491;SDS011;14927;51.210;6.838;2023-05-29T04:00:25;14.18;;;3.55;;
27491;SDS011;14927;51.210;6.838;2023-05-29T04:03:14;9.50;;;2.35;;
27491;SDS011;14927;51.210;6.838;2023-05-29T04:05:59;8.77;;;2.33;;
27491;SDS011;14927;51.210;6.838;2023-05-29T04:08:44;10.70;;;2.55;;
27491;SDS011;14927;51.210;6.838;2023-05-29T04:11:28;11.38;;;2.63;;
27491;SDS011;14927;51.210;6.838;2023-05-29T04:14:13;11.55;;;2.72;;
27491;SDS011;14927;51.210;6.838;2023-05-29T04:16:58;9.20;;;2.47;;
27491;SDS011;14927;51.210;6.838;2023-05-29T04:19:42;10.45;;;2.75;;
27491;SDS011;14927;51.210;6.838;2023-05-29T04:22:28;12.25;;;2.90;;
27491;SDS011;14927;51.210;6.838;2023-05-29T04:25:13;9.27;;;2.85;;
27491;SDS011;14927;51.210;6.838;2023-05-29T04:27:59;14.95;;;3.15;;
27491;SDS011;14927;51.210;6.838;2023-05-29T04:30:46;10.52;;;2.45;;
27491;SDS011;14927;51.210;6.838;2023-05-29T04:33:31;10.90;;;2.88;;
27491;SDS011;14927;51.210;6.838;2023-05-29T04:36:17;12.05;;;2.75;;
27491;SDS011;14927;51.210;6.838;2023-05-29T04:39:03;10.77;;;2.60;;
27491;SDS011;14927;51.210;6.838;2023-05-29T04:41:51;12.88;;;2.70;;
27491;SDS011;14927;51.210;6.838;2023-05-29T04:44:36;16.42;;;2.83;;
27491;SDS011;14927;51.210;6.838;2023-05-29T04:47:23;14.20;;;3.30;;
27491;SDS011;14927;51.210;6.838;2023-05-29T04:50:07;10.70;;;2.70;;
27491;SDS011;14927;51.210;6.838;2023-05-29T04:52:56;13.38;;;2.92;;
27491;SDS011;14927;51.210;6.838;2023-05-29T04:55:41;13.85;;;2.88;;
27491;SDS011;14927;51.210;6.838;2023-05-29T04:58:26;9.40;;;2.70;;
27491;SDS011;14927;51.210;6.838;2023-05-29T05:01:14;11.98;;;2.83;;
27491;SDS011;14927;51.210;6.838;2023-05-29T05:03:59;11.05;;;2.40;;
27491;SDS011;14927;51.210;6.838;2023-05-29T05:06:44;11.60;;;2.90;;
27491;SDS011;14927;51.210;6.838;2023-05-29T05:09:29;12.77;;;2.67;;
27491;SDS011;14927;51.210;6.838;2023-05-29T05:12:14;15.77;;;3.00;;
27491;SDS011;14927;51.210;6.838;2023-05-29T05:15:00;11.68;;;2.60;;
27491;SDS011;14927;51.210;6.838;2023-05-29T05:17:45;13.80;;;3.08;;
27491;SDS011;14927;51.210;6.838;2023-05-29T05:20:30;16.08;;;3.53;;
27491;SDS011;14927;51.210;6.838;2023-05-29T05:23:14;13.95;;;2.55;;
27491;SDS011;14927;51.210;6.838;2023-05-29T05:25:59;13.32;;;2.60;;
27491;SDS011;14927;51.210;6.838;2023-05-29T05:28:44;15.00;;;2.88;;
27491;SDS011;14927;51.210;6.838;2023-05-29T05:31:29;14.40;;;3.42;;
27491;SDS011;14927;51.210;6.838;2023-05-29T05:34:14;13.18;;;2.58;;
27491;SDS011;14927;51.210;6.838;2023-05-29T05:36:59;13.15;;;2.47;;
27491;SDS011;14927;51.210;6.838;2023-05-29T05:39:43;12.35;;;3.30;;
27491;SDS011;14927;51.210;6.838;2023-05-29T05:42:29;12.90;;;2.40;;
27491;SDS011;14927;51.210;6.838;2023-05-29T05:45:14;16.65;;;3.08;;
27491;SDS011;14927;51.210;6.838;2023-05-29T05:47:58;10.90;;;2.63;;
27491;SDS011;14927;51.210;6.838;2023-05-29T05:50:43;15.65;;;3.42;;
27491;SDS011;14927;51.210;6.838;2023-05-29T05:53:28;16.13;;;3.42;;
27491;SDS011;14927;51.210;6.838;2023-05-29T05:56:12;9.93;;;2.80;;
27491;SDS011;14927;51.210;6.838;2023-05-29T05:58:57;10.15;;;2.70;;
27491;SDS011;14927;51.210;6.838;2023-05-29T06:01:42;12.18;;;2.75;;
27491;SDS011;14927;51.210;6.838;2023-05-29T06:04:26;8.07;;;2.42;;
27491;SDS011;14927;51.210;6.838;2023-05-29T06:07:11;17.67;;;4.00;;
27491;SDS011;14927;51.210;6.838;2023-05-29T06:09:56;13.05;;;2.72;;
27491;SDS011;14927;51.210;6.838;2023-05-29T06:12:40;12.27;;;2.70;;
27491;SDS011;14927;51.210;6.838;2023-05-29T06:15:25;10.25;;;2.85;;
27491;SDS011;14927;51.210;6.838;2023-05-29T06:18:10;13.00;;;2.83;;
27491;SDS011;14927;51.210;6.838;2023-05-29T06:20:55;12.85;;;3.40;;
27491;SDS011;14927;51.210;6.838;2023-05-29T06:23:40;8.02;;;2.22;;
27491;SDS011;14927;51.210;6.838;2023-05-29T06:26:25;10.93;;;2.83;;
27491;SDS011;14927;51.210;6.838;2023-05-29T06:29:12;10.88;;;3.00;;
27491;SDS011;14927;51.210;6.838;2023-05-29T06:31:57;9.27;;;2.63;;
27491;SDS011;14927;51.210;6.838;2023-05-29T06:34:42;14.57;;;3.33;;
27491;SDS011;14927;51.210;6.838;2023-05-29T06:37:26;10.13;;;2.65;;
27491;SDS011;14927;51.210;6.838;2023-05-29T06:40:12;12.13;;;2.88;;
27491;SDS011;14927;51.210;6.838;2023-05-29T06:42:59;11.75;;;3.08;;
27491;SDS011;14927;51.210;6.838;2023-05-29T06:45:44;12.55;;;3.83;;
27491;SDS011;14927;51.210;6.838;2023-05-29T06:48:32;7.88;;;2.60;;
27491;SDS011;14927;51.210;6.838;2023-05-29T06:51:20;10.73;;;2.97;;
27491;SDS011;14927;51.210;6.838;2023-05-29T06:54:07;10.27;;;2.70;;
27491;SDS011;14927;51.210;6.838;2023-05-29T06:56:52;13.13;;;3.30;;
27491;SDS011;14927;51.210;6.838;2023-05-29T06:59:37;8.60;;;3.15;;
27491;SDS011;14927;51.210;6.838;2023-05-29T07:02:22;15.35;;;3.35;;
27491;SDS011;14927;51.210;6.838;2023-05-29T07:05:07;12.57;;;3.05;;
27491;SDS011;14927;51.210;6.838;2023-05-29T07:07:52;9.60;;;2.97;;
27491;SDS011;14927;51.210;6.838;2023-05-29T07:10:37;9.65;;;2.30;;
27491;SDS011;14927;51.210;6.838;2023-05-29T07:13:21;11.10;;;3.28;;
27491;SDS011;14927;51.210;6.838;2023-05-29T07:16:09;10.27;;;3.03;;
27491;SDS011;14927;51.210;6.838;2023-05-29T07:18:53;10.75;;;2.85;;
27491;SDS011;14927;51.210;6.838;2023-05-29T07:21:38;11.35;;;3.17;;
27491;SDS011;14927;51.210;6.838;2023-05-29T07:24:23;12.35;;;3.35;;
27491;SDS011;14927;51.210;6.838;2023-05-29T07:27:07;9.27;;;2.70;;
27491;SDS011;14927;51.210;6.838;2023-05-29T07:29:52;13.15;;;3.72;;
27491;SDS011;14927;51.210;6.838;2023-05-29T07:32:37;12.13;;;3.45;;
27491;SDS011;14927;51.210;6.838;2023-05-29T07:35:21;11.13;;;3.00;;
27491;SDS011;14927;51.210;6.838;2023-05-29T07:38:06;10.45;;;2.65;;
27491;SDS011;14927;51.210;6.838;2023-05-29T07:40:51;9.68;;;2.55;;
27491;SDS011;14927;51.210;6.838;2023-05-29T07:43:36;7.70;;;2.78;;
27491;SDS011;14927;51.210;6.838;2023-05-29T07:46:20;15.60;;;2.95;;
27491;SDS011;14927;51.210;6.838;2023-05-29T07:49:05;12.35;;;3.10;;
27491;SDS011;14927;51.210;6.838;2023-05-29T07:51:50;12.75;;;3.30;;
27491;SDS011;14927;51.210;6.838;2023-05-29T07:54:35;11.52;;;3.00;;
27491;SDS011;14927;51.210;6.838;2023-05-29T07:57:20;11.30;;;3.28;;
27491;SDS011;14927;51.210;6.838;2023-05-29T08:00:04;11.20;;;2.85;;
27491;SDS011;14927;51.210;6.838;2023-05-29T08:02:51;11.00;;;2.90;;
27491;SDS011;14927;51.210;6.838;2023-05-29T08:05:36;8.02;;;2.60;;
27491;SDS011;14927;51.210;6.838;2023-05-29T08:08:21;12.38;;;2.95;;
27491;SDS011;14927;51.210;6.838;2023-05-29T08:11:05;10.15;;;2.72;;
27491;SDS011;14927;51.210;6.838;2023-05-29T08:13:50;10.43;;;2.90;;
27491;SDS011;14927;51.210;6.838;2023-05-29T08:16:35;10.63;;;3.10;;
27491;SDS011;14927;51.210;6.838;2023-05-29T08:19:19;13.18;;;3.55;;
27491;SDS011;14927;51.210;6.838;2023-05-29T08:22:05;12.93;;;3.28;;
27491;SDS011;14927;51.210;6.838;2023-05-29T08:24:50;8.73;;;2.55;;
27491;SDS011;14927;51.210;6.838;2023-05-29T08:27:35;10.10;;;2.70;;
27491;SDS011;14927;51.210;6.838;2023-05-29T08:30:19;10.55;;;2.55;;
27491;SDS011;14927;51.210;6.838;2023-05-29T08:33:04;15.18;;;4.32;;
27491;SDS011;14927;51.210;6.838;2023-05-29T08:35:50;12.07;;;3.20;;
27491;SDS011;14927;51.210;6.838;2023-05-29T08:38:35;16.17;;;3.08;;
27491;SDS011;14927;51.210;6.838;2023-05-29T08:44:23;13.10;;;2.95;;
27491;SDS011;14927;51.210;6.838;2023-05-29T08:47:09;11.75;;;3.80;;
27491;SDS011;14927;51.210;6.838;2023-05-29T08:49:58;10.43;;;3.47;;
27491;SDS011;14927;51.210;6.838;2023-05-29T08:52:46;10.27;;;2.85;;
27491;SDS011;14927;51.210;6.838;2023-05-29T08:55:31;6.00;;;2.20;;
27491;SDS011;14927;51.210;6.838;2023-05-29T08:58:20;13.63;;;3.15;;
27491;SDS011;14927;51.210;6.838;2023-05-29T09:01:05;9.85;;;2.60;;
27491;SDS011;14927;51.210;6.838;2023-05-29T09:03:50;10.88;;;3.08;;
27491;SDS011;14927;51.210;6.838;2023-05-29T09:06:36;11.43;;;3.42;;
27491;SDS011;14927;51.210;6.838;2023-05-29T09:09:28;12.85;;;3.33;;
27491;SDS011;14927;51.210;6.838;2023-05-29T09:12:16;10.13;;;3.13;;
27491;SDS011;14927;51.210;6.838;2023-05-29T09:15:01;12.98;;;2.88;;
27491;SDS011;14927;51.210;6.838;2023-05-29T09:17:50;14.70;;;3.85;;
27491;SDS011;14927;51.210;6.838;2023-05-29T09:20:36;11.17;;;2.73;;
27491;SDS011;14927;51.210;6.838;2023-05-29T09:23:22;10.43;;;3.30;;
27491;SDS011;14927;51.210;6.838;2023-05-29T09:26:06;12.93;;;3.00;;
27491;SDS011;14927;51.210;6.838;2023-05-29T09:28:51;8.15;;;3.10;;
27491;SDS011;14927;51.210;6.838;2023-05-29T09:31:38;11.77;;;3.38;;
27491;SDS011;14927;51.210;6.838;2023-05-29T09:34:30;9.77;;;2.80;;
27491;SDS011;14927;51.210;6.838;2023-05-29T09:37:15;13.35;;;3.97;;
27491;SDS011;14927;51.210;6.838;2023-05-29T09:40:01;10.95;;;3.65;;
27491;SDS011;14927;51.210;6.838;2023-05-29T09:42:48;11.65;;;3.40;;
27491;SDS011;14927;51.210;6.838;2023-05-29T09:45:33;14.70;;;3.55;;
27491;SDS011;14927;51.210;6.838;2023-05-29T09:48:23;9.73;;;3.15;;
27491;SDS011;14927;51.210;6.838;2023-05-29T09:51:19;10.68;;;2.75;;
27491;SDS011;14927;51.210;6.838;2023-05-29T09:54:15;6.88;;;2.63;;
27491;SDS011;14927;51.210;6.838;2023-05-29T09:57:00;11.93;;;2.65;;
27491;SDS011;14927;51.210;6.838;2023-05-29T09:59:47;9.27;;;2.70;;
27491;SDS011;14927;51.210;6.838;2023-05-29T10:02:35;13.70;;;2.92;;
27491;SDS011;14927;51.210;6.838;2023-05-29T10:10:32;11.38;;;2.70;;
27491;SDS011;14927;51.210;6.838;2023-05-29T10:14:09;11.23;;;2.72;;
27491;SDS011;14927;51.210;6.838;2023-05-29T10:22:04;15.90;;;3.50;;
27491;SDS011;14927;51.210;6.838;2023-05-29T10:25:10;7.88;;;2.47;;
27491;SDS011;14927;51.210;6.838;2023-05-29T10:28:01;9.40;;;2.45;;
27491;SDS011;14927;51.210;6.838;2023-05-29T10:31:05;8.32;;;2.42;;
27491;SDS011;14927;51.210;6.838;2023-05-29T10:37:47;9.07;;;3.05;;
27491;SDS011;14927;51.210;6.838;2023-05-29T10:47:17;10.85;;;3.20;;
27491;SDS011;14927;51.210;6.838;2023-05-29T10:50:07;10.63;;;2.40;;
27491;SDS011;14927;51.210;6.838;2023-05-29T10:52:53;13.02;;;3.13;;
27491;SDS011;14927;51.210;6.838;2023-05-29T10:55:39;12.32;;;2.60;;
27491;SDS011;14927;51.210;6.838;2023-05-29T10:58:25;8.80;;;2.67;;
27491;SDS011;14927;51.210;6.838;2023-05-29T11:01:11;9.48;;;2.55;;
27491;SDS011;14927;51.210;6.838;2023-05-29T11:07:03;11.35;;;2.85;;
27491;SDS011;14927;51.210;6.838;2023-05-29T11:09:50;9.30;;;2.75;;
27491;SDS011;14927;51.210;6.838;2023-05-29T11:12:35;14.05;;;3.63;;
27491;SDS011;14927;51.210;6.838;2023-05-29T11:15:40;10.88;;;2.65;;
27491;SDS011;14927;51.210;6.838;2023-05-29T11:18:25;9.35;;;3.38;;
27491;SDS011;14927;51.210;6.838;2023-05-29T11:24:23;7.70;;;2.28;;
27491;SDS011;14927;51.210;6.838;2023-05-29T11:27:09;10.20;;;3.03;;
27491;SDS011;14927;51.210;6.838;2023-05-29T11:29:54;15.50;;;3.38;;
27491;SDS011;14927;51.210;6.838;2023-05-29T11:32:40;10.07;;;2.97;;
27491;SDS011;14927;51.210;6.838;2023-05-29T11:35:26;10.70;;;2.25;;
27491;SDS011;14927;51.210;6.838;2023-05-29T11:38:15;11.05;;;2.92;;
27491;SDS011;14927;51.210;6.838;2023-05-29T11:41:01;11.65;;;2.70;;
27491;SDS011;14927;51.210;6.838;2023-05-29T11:43:56;9.95;;;2.53;;
27491;SDS011;14927;51.210;6.838;2023-05-29T11:46:46;9.13;;;2.90;;
27491;SDS011;14927;51.210;6.838;2023-05-29T11:49:34;12.48;;;2.60;;
27491;SDS011;14927;51.210;6.838;2023-05-29T11:52:20;7.30;;;2.78;;
27491;SDS011;14927;51.210;6.838;2023-05-29T11:55:06;6.43;;;1.98;;
27491;SDS011;14927;51.210;6.838;2023-05-29T11:57:55;10.27;;;2.53;;
27491;SDS011;14927;51.210;6.838;2023-05-29T12:00:42;8.13;;;2.28;;
27491;SDS011;14927;51.210;6.838;2023-05-29T12:03:28;10.82;;;2.47;;
27491;SDS011;14927;51.210;6.838;2023-05-29T12:06:13;8.30;;;2.40;;
27491;SDS011;14927;51.210;6.838;2023-05-29T12:08:57;5.70;;;2.42;;
27491;SDS011;14927;51.210;6.838;2023-05-29T12:11:42;7.50;;;2.40;;
27491;SDS011;14927;51.210;6.838;2023-05-29T12:14:27;7.07;;;2.47;;
27491;SDS011;14927;51.210;6.838;2023-05-29T12:17:11;6.88;;;2.47;;
27491;SDS011;14927;51.210;6.838;2023-05-29T12:19:56;9.07;;;2.45;;
27491;SDS011;14927;51.210;6.838;2023-05-29T12:22:42;9.57;;;2.50;;
27491;SDS011;14927;51.210;6.838;2023-05-29T12:25:28;7.32;;;2.35;;
27491;SDS011;14927;51.210;6.838;2023-05-29T12:28:16;8.77;;;2.17;;
27491;SDS011;14927;51.210;6.838;2023-05-29T12:31:04;7.40;;;2.78;;
27491;SDS011;14927;51.210;6.838;2023-05-29T12:33:49;9.02;;;3.00;;
27491;SDS011;14927;51.210;6.838;2023-05-29T12:36:34;7.28;;;2.53;;
27491;SDS011;14927;51.210;6.838;2023-05-29T12:39:18;8.13;;;1.83;;
27491;SDS011;14927;51.210;6.838;2023-05-29T12:42:03;7.47;;;2.75;;
27491;SDS011;14927;51.210;6.838;2023-05-29T12:44:49;8.70;;;2.50;;
27491;SDS011;14927;51.210;6.838;2023-05-29T12:47:34;6.95;;;2.30;;
27491;SDS011;14927;51.210;6.838;2023-05-29T12:50:23;6.65;;;2.42;;
27491;SDS011;14927;51.210;6.838;2023-05-29T12:53:12;8.88;;;2.67;;
27491;SDS011;14927;51.210;6.838;2023-05-29T12:55:57;7.32;;;2.08;;
27491;SDS011;14927;51.210;6.838;2023-05-29T12:58:42;6.63;;;2.10;;
27491;SDS011;14927;51.210;6.838;2023-05-29T13:01:26;7.60;;;2.25;;
27491;SDS011;14927;51.210;6.838;2023-05-29T13:04:11;6.05;;;2.00;;
27491;SDS011;14927;51.210;6.838;2023-05-29T13:06:59;6.57;;;1.95;;
27491;SDS011;14927;51.210;6.838;2023-05-29T13:09:44;9.48;;;2.88;;
27491;SDS011;14927;51.210;6.838;2023-05-29T13:12:29;6.53;;;1.95;;
27491;SDS011;14927;51.210;6.838;2023-05-29T13:15:13;7.50;;;2.15;;
27491;SDS011;14927;51.210;6.838;2023-05-29T13:17:58;6.65;;;2.08;;
27491;SDS011;14927;51.210;6.838;2023-05-29T13:20:43;8.63;;;2.50;;
27491;SDS011;14927;51.210;6.838;2023-05-29T13:23:28;11.15;;;2.60;;
27491;SDS011;14927;51.210;6.838;2023-05-29T13:26:12;6.28;;;2.55;;
27491;SDS011;14927;51.210;6.838;2023-05-29T13:28:57;7.18;;;2.42;;
27491;SDS011;14927;51.210;6.838;2023-05-29T13:31:42;6.70;;;2.40;;
27491;SDS011;14927;51.210;6.838;2023-05-29T13:34:26;8.60;;;2.60;;
27491;SDS011;14927;51.210;6.838;2023-05-29T13:37:14;7.00;;;2.78;;
27491;SDS011;14927;51.210;6.838;2023-05-29T13:39:58;6.68;;;2.55;;
27491;SDS011;14927;51.210;6.838;2023-05-29T13:42:43;6.00;;;1.88;;
27491;SDS011;14927;51.210;6.838;2023-05-29T13:45:28;9.02;;;2.22;;
27491;SDS011;14927;51.210;6.838;2023-05-29T13:48:12;7.75;;;2.25;;
27491;SDS011;14927;51.210;6.838;2023-05-29T13:50:57;6.60;;;2.40;;
27491;SDS011;14927;51.210;6.838;2023-05-29T13:53:42;6.53;;;2.25;;
27491;SDS011;14927;51.210;6.838;2023-05-29T13:56:26;6.63;;;2.78;;
27491;SDS011;14927;51.210;6.838;2023-05-29T13:59:11;8.35;;;2.42;;
27491;SDS011;14927;51.210;6.838;2023-05-29T14:01:56;6.20;;;2.55;;
27491;SDS011;14927;51.210;6.838;2023-05-29T14:04:40;6.63;;;2.20;;
27491;SDS011;14927;51.210;6.838;2023-05-29T14:07:26;9.05;;;2.33;;
27491;SDS011;14927;51.210;6.838;2023-05-29T14:10:11;7.45;;;2.45;;
27491;SDS011;14927;51.210;6.838;2023-05-29T14:12:56;7.40;;;2.35;;
27491;SDS011;14927;51.210;6.838;2023-05-29T14:15:40;5.32;;;2.15;;
27491;SDS011;14927;51.210;6.838;2023-05-29T14:18:25;8.02;;;2.65;;
27491;SDS011;14927;51.210;6.838;2023-05-29T14:21:09;4.90;;;2.28;;
27491;SDS011;14927;51.210;6.838;2023-05-29T14:23:54;4.93;;;2.05;;
27491;SDS011;14927;51.210;6.838;2023-05-29T14:26:39;8.40;;;2.33;;
27491;SDS011;14927;51.210;6.838;2023-05-29T14:29:25;7.82;;;2.53;;
27491;SDS011;14927;51.210;6.838;2023-05-29T14:32:10;4.53;;;1.92;;
27491;SDS011;14927;51.210;6.838;2023-05-29T14:34:54;7.47;;;2.42;;
27491;SDS011;14927;51.210;6.838;2023-05-29T14:37:41;6.00;;;1.90;;
27491;SDS011;14927;51.210;6.838;2023-05-29T14:40:26;7.65;;;1.92;;
27491;SDS011;14927;51.210;6.838;2023-05-29T14:43:11;8.00;;;2.20;;
27491;SDS011;14927;51.210;6.838;2023-05-29T14:45:56;4.75;;;2.13;;
27491;SDS011;14927;51.210;6.838;2023-05-29T14:48:40;7.22;;;2.42;;
27491;SDS011;14927;51.210;6.838;2023-05-29T14:51:31;6.10;;;2.15;;
27491;SDS011;14927;51.210;6.838;2023-05-29T14:54:16;6.15;;;2.35;;
27491;SDS011;14927;51.210;6.838;2023-05-29T14:57:01;5.57;;;2.20;;
27491;SDS011;14927;51.210;6.838;2023-05-29T14:59:46;5.32;;;2.25;;
27491;SDS011;14927;51.210;6.838;2023-05-29T15:02:30;8.43;;;2.30;;
27491;SDS011;14927;51.210;6.838;2023-05-29T15:05:16;7.50;;;2.53;;
27491;SDS011;14927;51.210;6.838;2023-05-29T15:08:02;7.03;;;2.33;;
27491;SDS011;14927;51.210;6.838;2023-05-29T15:10:47;8.80;;;2.80;;
27491;SDS011;14927;51.210;6.838;2023-05-29T15:13:32;7.45;;;2.70;;
27491;SDS011;14927;51.210;6.838;2023-05-29T15:16:16;5.80;;;2.05;;
27491;SDS011;14927;51.210;6.838;2023-05-29T15:19:01;6.70;;;2.47;;
27491;SDS011;14927;51.210;6.838;2023-05-29T15:21:46;4.97;;;2.08;;
27491;SDS011;14927;51.210;6.838;2023-05-29T15:24:30;5.97;;;1.95;;
27491;SDS011;14927;51.210;6.838;2023-05-29T15:27:15;13.93;;;2.20;;
27491;SDS011;14927;51.210;6.838;2023-05-29T15:30:13;6.82;;;2.28;;
27491;SDS011;14927;51.210;6.838;2023-05-29T15:33:00;5.75;;;2.25;;
27491;SDS011;14927;51.210;6.838;2023-05-29T15:35:44;5.85;;;2.20;;
27491;SDS011;14927;51.210;6.838;2023-05-29T15:38:30;8.80;;;2.22;;
27491;SDS011;14927;51.210;6.838;2023-05-29T15:41:16;7.57;;;2.78;;
27491;SDS011;14927;51.210;6.838;2023-05-29T15:44:00;7.57;;;2.00;;
27491;SDS011;14927;51.210;6.838;2023-05-29T15:46:45;6.43;;;2.50;;
27491;SDS011;14927;51.210;6.838;2023-05-29T15:49:29;8.65;;;2.33;;
27491;SDS011;14927;51.210;6.838;2023-05-29T15:52:14;7.40;;;2.20;;
27491;SDS011;14927;51.210;6.838;2023-05-29T15:54:59;7.78;;;2.35;;
27491;SDS011;14927;51.210;6.838;2023-05-29T15:57:43;6.30;;;2.22;;
27491;SDS011;14927;51.210;6.838;2023-05-29T16:00:28;7.00;;;2.08;;
27491;SDS011;14927;51.210;6.838;2023-05-29T16:03:13;7.45;;;2.33;;
27491;SDS011;14927;51.210;6.838;2023-05-29T16:05:58;8.63;;;2.45;;
27491;SDS011;14927;51.210;6.838;2023-05-29T16:08:42;6.60;;;2.17;;
27491;SDS011;14927;51.210;6.838;2023-05-29T16:11:27;8.60;;;2.33;;
27491;SDS011;14927;51.210;6.838;2023-05-29T16:14:12;5.55;;;2.20;;
27491;SDS011;14927;51.210;6.838;2023-05-29T16:16:56;6.40;;;2.50;;
27491;SDS011;14927;51.210;6.838;2023-05-29T16:19:41;7.57;;;2.03;;
27491;SDS011;14927;51.210;6.838;2023-05-29T16:22:26;7.40;;;2.30;;
27491;SDS011;14927;51.210;6.838;2023-05-29T16:25:10;3.55;;;2.22;;
27491;SDS011;14927;51.210;6.838;2023-05-29T16:27:55;5.90;;;2.17;;
27491;SDS011;14927;51.210;6.838;2023-05-29T16:30:39;5.72;;;2.20;;
27491;SDS011;14927;51.210;6.838;2023-05-29T16:33:24;8.18;;;2.53;;
27491;SDS011;14927;51.210;6.838;2023-05-29T16:36:09;5.72;;;2.40;;
27491;SDS011;14927;51.210;6.838;2023-05-29T16:38:54;10.02;;;2.25;;
27491;SDS011;14927;51.210;6.838;2023-05-29T16:41:39;5.70;;;1.83;;
27491;SDS011;14927;51.210;6.838;2023-05-29T16:44:24;6.60;;;2.28;;
27491;SDS011;14927;51.210;6.838;2023-05-29T16:47:08;6.45;;;2.30;;
27491;SDS011;14927;51.210;6.838;2023-05-29T16:49:53;4.47;;;2.17;;
27491;SDS011;14927;51.210;6.838;2023-05-29T16:52:38;6.82;;;1.77;;
27491;SDS011;14927;51.210;6.838;2023-05-29T16:55:22;5.05;;;1.95;;
27491;SDS011;14927;51.210;6.838;2023-05-29T16:58:08;5.43;;;2.38;;
27491;SDS011;14927;51.210;6.838;2023-05-29T17:00:53;6.13;;;2.40;;
27491;SDS011;14927;51.210;6.838;2023-05-29T17:03:37;4.95;;;1.90;;
27491;SDS011;14927;51.210;6.838;2023-05-29T17:06:23;7.10;;;2.00;;
27491;SDS011;14927;51.210;6.838;2023-05-29T17:09:07;5.22;;;2.15;;
27491;SDS011;14927;51.210;6.838;2023-05-29T17:11:52;6.35;;;2.35;;
27491;SDS011;14927;51.210;6.838;2023-05-29T17:14:38;6.65;;;1.80;;
27491;SDS011;14927;51.210;6.838;2023-05-29T17:17:23;6.20;;;2.10;;